sensor_id;sensor_type;location;lat;lon;timestamp;P1;durP1;ratioP1;P2;durP2;ratioP2
16159;SDS011;8185;57.818;15.224;2023-05-07T00:01:58;3.20;;;1.97;;
16159;SDS011;8185;57.818;15.224;2023-05-07T00:04:25;1.83;;;1.73;;
16159;SDS011;8185;57.818;15.224;2023-05-07T00:06:53;2.57;;;2.00;;
16159;SDS011;8185;57.818;15.224;2023-05-07T00:09:20;2.40;;;1.97;;
16159;SDS011;8185;57.818;15.224;2023-05-07T00:11:49;1.80;;;1.70;;
16159;SDS011;8185;57.818;15.224;2023-05-07T00:14:16;2.03;;;1.83;;
16159;SDS011;8185;57.818;15.224;2023-05-07T00:16:43;1.57;;;1.47;;
16159;SDS011;8185;57.818;15.224;2023-05-07T00:19:10;2.60;;;2.07;;
16159;SDS011;8185;57.818;15.224;2023-05-07T00:21:37;2.03;;;1.80;;
16159;SDS011;8185;57.818;15.224;2023-05-07T00:24:05;2.93;;;2.37;;
16159;SDS011;8185;57.818;15.224;2023-05-07T00:26:32;4.13;;;2.00;;
16159;SDS011;8185;57.818;15.224;2023-05-07T00:29:00;4.23;;;2.20;;
16159;SDS011;8185;57.818;15.224;2023-05-07T00:31:28;2.93;;;2.17;;
16159;SDS011;8185;57.818;15.224;2023-05-07T00:33:55;3.27;;;1.90;;
16159;SDS011;8185;57.818;15.224;2023-05-07T00:36:22;3.20;;;2.10;;
16159;SDS011;8185;57.818;15.224;2023-05-07T00:38:49;3.50;;;2.00;;
16159;SDS011;8185;57.818;15.224;2023-05-07T00:41:17;1.80;;;1.70;;
16159;SDS011;8185;57.818;15.224;2023-05-07T00:43:44;2.33;;;2.00;;
16159;SDS011;8185;57.818;15.224;2023-05-07T00:46:12;2.13;;;1.80;;
16159;SDS011;8185;57.818;15.224;2023-05-07T00:48:40;1.93;;;1.83;;
16159;SDS011;8185;57.818;15.224;2023-05-07T00:51:08;2.23;;;2.03;;
16159;SDS011;8185;57.818;15.224;2023-05-07T00:53:36;4.97;;;2.03;;
16159;SDS011;8185;57.818;15.224;2023-05-07T00:56:05;3.90;;;2.03;;
16159;SDS011;8185;57.818;15.224;2023-05-07T00:58:32;2.20;;;2.00;;
16159;SDS011;8185;57.818;15.224;2023-05-07T01:01:00;3.73;;;2.03;;
16159;SDS011;8185;57.818;15.224;2023-05-07T01:03:28;2.43;;;2.17;;
16159;SDS011;8185;57.818;15.224;2023-05-07T01:05:56;4.53;;;2.10;;
16159;SDS011;8185;57.818;15.224;2023-05-07T01:08:25;3.40;;;2.10;;
16159;SDS011;8185;57.818;15.224;2023-05-07T01:10:54;2.33;;;2.17;;
16159;SDS011;8185;57.818;15.224;2023-05-07T01:13:22;3.80;;;2.47;;
16159;SDS011;8185;57.818;15.224;2023-05-07T01:15:50;2.47;;;2.27;;
16159;SDS011;8185;57.818;15.224;2023-05-07T01:18:17;2.60;;;1.93;;
16159;SDS011;8185;57.818;15.224;2023-05-07T01:20:46;2.97;;;2.03;;
16159;SDS011;8185;57.818;15.224;2023-05-07T01:23:15;2.63;;;1.90;;
16159;SDS011;8185;57.818;15.224;2023-05-07T01:25:48;3.73;;;1.97;;
16159;SDS011;8185;57.818;15.224;2023-05-07T01:28:18;4.50;;;2.07;;
16159;SDS011;8185;57.818;15.224;2023-05-07T01:30:45;2.57;;;1.80;;
16159;SDS011;8185;57.818;15.224;2023-05-07T01:33:15;3.63;;;2.17;;
16159;SDS011;8185;57.818;15.224;2023-05-07T01:35:47;2.17;;;1.97;;
16159;SDS011;8185;57.818;15.224;2023-05-07T01:38:19;2.50;;;2.30;;
16159;SDS011;8185;57.818;15.224;2023-05-07T01:40:48;3.70;;;2.47;;
16159;SDS011;8185;57.818;15.224;2023-05-07T01:43:15;2.27;;;2.07;;
16159;SDS011;8185;57.818;15.224;2023-05-07T01:45:43;2.80;;;2.03;;
16159;SDS011;8185;57.818;15.224;2023-05-07T01:48:12;3.07;;;2.20;;
16159;SDS011;8185;57.818;15.224;2023-05-07T01:50:41;2.30;;;2.10;;
16159;SDS011;8185;57.818;15.224;2023-05-07T01:53:10;3.43;;;2.07;;
16159;SDS011;8185;57.818;15.224;2023-05-07T01:55:39;3.30;;;2.20;;
16159;SDS011;8185;57.818;15.224;2023-05-07T01:58:06;3.40;;;2.10;;
16159;SDS011;8185;57.818;15.224;2023-05-07T02:00:33;2.60;;;2.33;;
16159;SDS011;8185;57.818;15.224;2023-05-07T02:03:01;2.70;;;2.50;;
16159;SDS011;8185;57.818;15.224;2023-05-07T02:05:28;4.90;;;2.10;;
16159;SDS011;8185;57.818;15.224;2023-05-07T02:07:55;2.90;;;2.17;;
16159;SDS011;8185;57.818;15.224;2023-05-07T02:10:22;2.53;;;2.33;;
16159;SDS011;8185;57.818;15.224;2023-05-07T02:12:51;4.90;;;2.80;;
16159;SDS011;8185;57.818;15.224;2023-05-07T02:15:18;3.13;;;2.80;;
16159;SDS011;8185;57.818;15.224;2023-05-07T02:17:58;2.47;;;2.27;;
16159;SDS011;8185;57.818;15.224;2023-05-07T02:20:26;3.30;;;2.53;;
16159;SDS011;8185;57.818;15.224;2023-05-07T02:22:53;2.90;;;2.60;;
16159;SDS011;8185;57.818;15.224;2023-05-07T02:25:20;4.23;;;2.77;;
16159;SDS011;8185;57.818;15.224;2023-05-07T02:27:47;2.37;;;2.17;;
16159;SDS011;8185;57.818;15.224;2023-05-07T02:30:16;2.60;;;2.40;;
16159;SDS011;8185;57.818;15.224;2023-05-07T02:32:46;4.70;;;2.70;;
16159;SDS011;8185;57.818;15.224;2023-05-07T02:35:13;3.80;;;3.00;;
16159;SDS011;8185;57.818;15.224;2023-05-07T02:37:40;2.90;;;2.60;;
16159;SDS011;8185;57.818;15.224;2023-05-07T02:40:08;2.60;;;2.40;;
16159;SDS011;8185;57.818;15.224;2023-05-07T02:42:36;2.83;;;2.63;;
16159;SDS011;8185;57.818;15.224;2023-05-07T02:45:03;5.20;;;2.70;;
16159;SDS011;8185;57.818;15.224;2023-05-07T02:47:32;4.60;;;2.73;;
16159;SDS011;8185;57.818;15.224;2023-05-07T02:49:59;4.43;;;2.57;;
16159;SDS011;8185;57.818;15.224;2023-05-07T02:52:27;5.00;;;2.80;;
16159;SDS011;8185;57.818;15.224;2023-05-07T02:54:54;2.87;;;2.50;;
16159;SDS011;8185;57.818;15.224;2023-05-07T02:57:21;3.10;;;2.90;;
16159;SDS011;8185;57.818;15.224;2023-05-07T02:59:48;5.10;;;3.00;;
16159;SDS011;8185;57.818;15.224;2023-05-07T03:02:15;3.07;;;2.50;;
16159;SDS011;8185;57.818;15.224;2023-05-07T03:04:44;4.40;;;2.70;;
16159;SDS011;8185;57.818;15.224;2023-05-07T03:07:11;4.60;;;2.50;;
16159;SDS011;8185;57.818;15.224;2023-05-07T03:09:39;3.93;;;2.80;;
16159;SDS011;8185;57.818;15.224;2023-05-07T03:12:06;3.73;;;2.60;;
16159;SDS011;8185;57.818;15.224;2023-05-07T03:14:34;3.40;;;2.53;;
16159;SDS011;8185;57.818;15.224;2023-05-07T03:17:01;4.17;;;2.50;;
16159;SDS011;8185;57.818;15.224;2023-05-07T03:19:28;3.20;;;2.90;;
16159;SDS011;8185;57.818;15.224;2023-05-07T03:21:57;4.93;;;2.87;;
16159;SDS011;8185;57.818;15.224;2023-05-07T03:24:24;4.33;;;2.77;;
16159;SDS011;8185;57.818;15.224;2023-05-07T03:26:51;2.83;;;2.53;;
16159;SDS011;8185;57.818;15.224;2023-05-07T03:29:18;2.70;;;2.50;;
16159;SDS011;8185;57.818;15.224;2023-05-07T03:31:46;4.07;;;2.70;;
16159;SDS011;8185;57.818;15.224;2023-05-07T03:34:13;5.07;;;2.93;;
16159;SDS011;8185;57.818;15.224;2023-05-07T03:36:42;3.23;;;2.60;;
16159;SDS011;8185;57.818;15.224;2023-05-07T03:39:11;3.30;;;3.00;;
16159;SDS011;8185;57.818;15.224;2023-05-07T03:41:38;3.20;;;2.80;;
16159;SDS011;8185;57.818;15.224;2023-05-07T03:44:05;2.57;;;2.37;;
16159;SDS011;8185;57.818;15.224;2023-05-07T03:46:33;3.17;;;2.50;;
16159;SDS011;8185;57.818;15.224;2023-05-07T03:49:00;2.50;;;2.17;;
16159;SDS011;8185;57.818;15.224;2023-05-07T03:51:27;3.80;;;2.60;;
16159;SDS011;8185;57.818;15.224;2023-05-07T03:53:55;2.93;;;2.30;;
16159;SDS011;8185;57.818;15.224;2023-05-07T03:56:24;5.23;;;3.00;;
16159;SDS011;8185;57.818;15.224;2023-05-07T03:58:53;3.47;;;2.43;;
16159;SDS011;8185;57.818;15.224;2023-05-07T04:01:20;3.37;;;2.40;;
16159;SDS011;8185;57.818;15.224;2023-05-07T04:03:47;2.63;;;2.33;;
16159;SDS011;8185;57.818;15.224;2023-05-07T04:06:15;2.40;;;2.20;;
16159;SDS011;8185;57.818;15.224;2023-05-07T04:08:42;5.10;;;2.57;;
16159;SDS011;8185;57.818;15.224;2023-05-07T04:11:09;2.73;;;2.50;;
16159;SDS011;8185;57.818;15.224;2023-05-07T04:13:38;3.60;;;2.33;;
16159;SDS011;8185;57.818;15.224;2023-05-07T04:16:05;3.03;;;2.40;;
16159;SDS011;8185;57.818;15.224;2023-05-07T04:18:33;2.70;;;2.43;;
16159;SDS011;8185;57.818;15.224;2023-05-07T04:21:00;3.50;;;2.53;;
16159;SDS011;8185;57.818;15.224;2023-05-07T04:23:27;2.80;;;2.53;;
16159;SDS011;8185;57.818;15.224;2023-05-07T04:25:55;2.47;;;2.27;;
16159;SDS011;8185;57.818;15.224;2023-05-07T04:28:22;3.60;;;2.30;;
16159;SDS011;8185;57.818;15.224;2023-05-07T04:30:51;3.90;;;2.40;;
16159;SDS011;8185;57.818;15.224;2023-05-07T04:33:18;2.00;;;1.80;;
16159;SDS011;8185;57.818;15.224;2023-05-07T04:35:45;2.13;;;1.93;;
16159;SDS011;8185;57.818;15.224;2023-05-07T04:38:12;5.20;;;2.30;;
16159;SDS011;8185;57.818;15.224;2023-05-07T04:40:39;2.07;;;1.97;;
16159;SDS011;8185;57.818;15.224;2023-05-07T04:43:07;3.37;;;2.17;;
16159;SDS011;8185;57.818;15.224;2023-05-07T04:45:35;4.67;;;2.10;;
16159;SDS011;8185;57.818;15.224;2023-05-07T04:48:04;4.27;;;2.17;;
16159;SDS011;8185;57.818;15.224;2023-05-07T04:50:31;4.67;;;2.00;;
16159;SDS011;8185;57.818;15.224;2023-05-07T04:52:59;2.17;;;1.73;;
16159;SDS011;8185;57.818;15.224;2023-05-07T04:55:26;2.17;;;1.97;;
16159;SDS011;8185;57.818;15.224;2023-05-07T04:57:53;3.27;;;2.17;;
16159;SDS011;8185;57.818;15.224;2023-05-07T05:00:20;3.70;;;2.30;;
16159;SDS011;8185;57.818;15.224;2023-05-07T05:02:48;3.40;;;2.10;;
16159;SDS011;8185;57.818;15.224;2023-05-07T05:05:16;2.30;;;2.10;;
16159;SDS011;8185;57.818;15.224;2023-05-07T05:07:44;3.73;;;2.10;;
16159;SDS011;8185;57.818;15.224;2023-05-07T05:10:11;2.73;;;2.03;;
16159;SDS011;8185;57.818;15.224;2023-05-07T05:12:38;2.00;;;1.80;;
16159;SDS011;8185;57.818;15.224;2023-05-07T05:15:06;3.00;;;1.67;;
16159;SDS011;8185;57.818;15.224;2023-05-07T05:17:35;3.40;;;1.97;;
16159;SDS011;8185;57.818;15.224;2023-05-07T05:20:03;1.90;;;1.70;;
16159;SDS011;8185;57.818;15.224;2023-05-07T05:22:32;1.73;;;1.50;;
16159;SDS011;8185;57.818;15.224;2023-05-07T05:24:59;2.80;;;1.67;;
16159;SDS011;8185;57.818;15.224;2023-05-07T05:27:27;3.50;;;2.00;;
16159;SDS011;8185;57.818;15.224;2023-05-07T05:29:54;1.93;;;1.73;;
16159;SDS011;8185;57.818;15.224;2023-05-07T05:32:22;2.03;;;1.70;;
16159;SDS011;8185;57.818;15.224;2023-05-07T05:34:49;1.77;;;1.63;;
16159;SDS011;8185;57.818;15.224;2023-05-07T05:37:16;1.80;;;1.50;;
16159;SDS011;8185;57.818;15.224;2023-05-07T05:39:45;1.97;;;1.70;;
16159;SDS011;8185;57.818;15.224;2023-05-07T05:42:12;3.23;;;1.50;;
16159;SDS011;8185;57.818;15.224;2023-05-07T05:44:39;2.30;;;1.60;;
16159;SDS011;8185;57.818;15.224;2023-05-07T05:47:06;1.70;;;1.50;;
16159;SDS011;8185;57.818;15.224;2023-05-07T05:49:34;3.83;;;1.70;;
16159;SDS011;8185;57.818;15.224;2023-05-07T05:52:01;1.57;;;1.13;;
16159;SDS011;8185;57.818;15.224;2023-05-07T05:54:28;3.23;;;1.10;;
16159;SDS011;8185;57.818;15.224;2023-05-07T05:56:57;1.20;;;1.10;;
16159;SDS011;8185;57.818;15.224;2023-05-07T05:59:24;6.20;;;1.33;;
16159;SDS011;8185;57.818;15.224;2023-05-07T06:01:51;3.33;;;1.20;;
16159;SDS011;8185;57.818;15.224;2023-05-07T06:04:18;2.87;;;1.50;;
16159;SDS011;8185;57.818;15.224;2023-05-07T06:06:45;1.97;;;1.17;;
16159;SDS011;8185;57.818;15.224;2023-05-07T06:09:13;1.30;;;1.20;;
16159;SDS011;8185;57.818;15.224;2023-05-07T06:11:40;1.30;;;1.20;;
16159;SDS011;8185;57.818;15.224;2023-05-07T06:14:08;3.93;;;1.10;;
16159;SDS011;8185;57.818;15.224;2023-05-07T06:16:36;1.00;;;0.90;;
16159;SDS011;8185;57.818;15.224;2023-05-07T06:19:03;1.70;;;1.20;;
16159;SDS011;8185;57.818;15.224;2023-05-07T06:21:30;2.60;;;1.10;;
16159;SDS011;8185;57.818;15.224;2023-05-07T06:23:58;2.80;;;1.20;;
16159;SDS011;8185;57.818;15.224;2023-05-07T06:26:25;2.13;;;1.10;;
16159;SDS011;8185;57.818;15.224;2023-05-07T06:28:52;1.47;;;1.03;;
16159;SDS011;8185;57.818;15.224;2023-05-07T06:31:21;2.03;;;1.00;;
16159;SDS011;8185;57.818;15.224;2023-05-07T06:33:48;1.30;;;1.10;;
16159;SDS011;8185;57.818;15.224;2023-05-07T06:36:16;5.37;;;1.20;;
16159;SDS011;8185;57.818;15.224;2023-05-07T06:38:43;2.33;;;1.10;;
16159;SDS011;8185;57.818;15.224;2023-05-07T06:41:10;1.23;;;0.80;;
16159;SDS011;8185;57.818;15.224;2023-05-07T06:43:37;2.90;;;0.70;;
16159;SDS011;8185;57.818;15.224;2023-05-07T06:46:05;2.40;;;0.70;;
16159;SDS011;8185;57.818;15.224;2023-05-07T06:48:33;2.87;;;1.03;;
16159;SDS011;8185;57.818;15.224;2023-05-07T06:51:00;1.27;;;0.80;;
16159;SDS011;8185;57.818;15.224;2023-05-07T06:53:28;1.33;;;1.00;;
16159;SDS011;8185;57.818;15.224;2023-05-07T06:55:55;2.50;;;0.80;;
16159;SDS011;8185;57.818;15.224;2023-05-07T06:58:23;1.70;;;0.87;;
16159;SDS011;8185;57.818;15.224;2023-05-07T07:00:50;2.27;;;0.93;;
16159;SDS011;8185;57.818;15.224;2023-05-07T07:03:17;0.87;;;0.80;;
16159;SDS011;8185;57.818;15.224;2023-05-07T07:05:46;1.10;;;0.70;;
16159;SDS011;8185;57.818;15.224;2023-05-07T07:08:13;1.23;;;0.90;;
16159;SDS011;8185;57.818;15.224;2023-05-07T07:10:42;1.07;;;0.93;;
16159;SDS011;8185;57.818;15.224;2023-05-07T07:13:09;1.13;;;0.53;;
16159;SDS011;8185;57.818;15.224;2023-05-07T07:15:36;1.87;;;0.67;;
16159;SDS011;8185;57.818;15.224;2023-05-07T07:18:03;1.07;;;0.63;;
16159;SDS011;8185;57.818;15.224;2023-05-07T07:20:31;1.23;;;0.80;;
16159;SDS011;8185;57.818;15.224;2023-05-07T07:22:59;1.67;;;0.77;;
16159;SDS011;8185;57.818;15.224;2023-05-07T07:25:27;1.60;;;0.80;;
16159;SDS011;8185;57.818;15.224;2023-05-07T07:27:54;3.00;;;0.67;;
16159;SDS011;8185;57.818;15.224;2023-05-07T07:30:21;3.17;;;1.03;;
16159;SDS011;8185;57.818;15.224;2023-05-07T07:32:48;2.00;;;0.87;;
16159;SDS011;8185;57.818;15.224;2023-05-07T07:35:17;5.07;;;1.00;;
16159;SDS011;8185;57.818;15.224;2023-05-07T07:37:44;1.37;;;1.00;;
16159;SDS011;8185;57.818;15.224;2023-05-07T07:40:13;2.60;;;0.97;;
16159;SDS011;8185;57.818;15.224;2023-05-07T07:42:41;1.93;;;1.10;;
16159;SDS011;8185;57.818;15.224;2023-05-07T07:45:08;2.00;;;1.10;;
16159;SDS011;8185;57.818;15.224;2023-05-07T07:47:36;2.57;;;1.30;;
16159;SDS011;8185;57.818;15.224;2023-05-07T07:50:03;3.37;;;0.80;;
16159;SDS011;8185;57.818;15.224;2023-05-07T07:52:31;2.50;;;0.90;;
16159;SDS011;8185;57.818;15.224;2023-05-07T07:54:58;2.07;;;0.97;;
16159;SDS011;8185;57.818;15.224;2023-05-07T07:57:26;2.20;;;0.87;;
16159;SDS011;8185;57.818;15.224;2023-05-07T07:59:54;2.03;;;0.87;;
16159;SDS011;8185;57.818;15.224;2023-05-07T08:02:21;2.47;;;1.10;;
16159;SDS011;8185;57.818;15.224;2023-05-07T08:04:48;3.00;;;1.33;;
16159;SDS011;8185;57.818;15.224;2023-05-07T08:07:15;3.80;;;1.63;;
16159;SDS011;8185;57.818;15.224;2023-05-07T08:09:45;3.73;;;0.90;;
16159;SDS011;8185;57.818;15.224;2023-05-07T08:12:13;2.50;;;0.70;;
16159;SDS011;8185;57.818;15.224;2023-05-07T08:14:42;1.60;;;1.07;;
16159;SDS011;8185;57.818;15.224;2023-05-07T08:17:09;2.43;;;1.40;;
16159;SDS011;8185;57.818;15.224;2023-05-07T08:19:36;1.50;;;1.00;;
16159;SDS011;8185;57.818;15.224;2023-05-07T08:22:05;1.03;;;0.90;;
16159;SDS011;8185;57.818;15.224;2023-05-07T08:24:32;4.17;;;1.10;;
16159;SDS011;8185;57.818;15.224;2023-05-07T08:27:00;1.87;;;0.70;;
16159;SDS011;8185;57.818;15.224;2023-05-07T08:29:27;1.00;;;0.90;;
16159;SDS011;8185;57.818;15.224;2023-05-07T08:31:56;4.10;;;1.60;;
16159;SDS011;8185;57.818;15.224;2023-05-07T08:34:23;2.83;;;1.57;;
16159;SDS011;8185;57.818;15.224;2023-05-07T08:36:51;3.53;;;1.17;;
16159;SDS011;8185;57.818;15.224;2023-05-07T08:39:18;2.27;;;0.80;;
16159;SDS011;8185;57.818;15.224;2023-05-07T08:41:45;2.00;;;1.03;;
16159;SDS011;8185;57.818;15.224;2023-05-07T08:44:14;1.50;;;1.07;;
16159;SDS011;8185;57.818;15.224;2023-05-07T08:46:44;2.40;;;1.10;;
16159;SDS011;8185;57.818;15.224;2023-05-07T08:49:14;1.80;;;1.00;;
16159;SDS011;8185;57.818;15.224;2023-05-07T08:51:42;2.00;;;0.90;;
16159;SDS011;8185;57.818;15.224;2023-05-07T08:54:09;3.23;;;1.10;;
16159;SDS011;8185;57.818;15.224;2023-05-07T08:56:38;3.03;;;1.03;;
16159;SDS011;8185;57.818;15.224;2023-05-07T08:59:06;2.37;;;1.10;;
16159;SDS011;8185;57.818;15.224;2023-05-07T09:01:33;2.03;;;1.20;;
16159;SDS011;8185;57.818;15.224;2023-05-07T09:04:01;4.97;;;0.90;;
16159;SDS011;8185;57.818;15.224;2023-05-07T09:06:29;4.63;;;1.10;;
16159;SDS011;8185;57.818;15.224;2023-05-07T09:08:56;1.77;;;0.90;;
16159;SDS011;8185;57.818;15.224;2023-05-07T09:11:26;2.20;;;1.00;;
16159;SDS011;8185;57.818;15.224;2023-05-07T09:13:53;2.17;;;1.00;;
16159;SDS011;8185;57.818;15.224;2023-05-07T09:16:23;3.53;;;1.23;;
16159;SDS011;8185;57.818;15.224;2023-05-07T09:18:51;1.73;;;1.10;;
16159;SDS011;8185;57.818;15.224;2023-05-07T09:21:20;2.20;;;1.10;;
16159;SDS011;8185;57.818;15.224;2023-05-07T09:23:51;2.07;;;1.30;;
16159;SDS011;8185;57.818;15.224;2023-05-07T09:26:21;2.70;;;0.90;;
16159;SDS011;8185;57.818;15.224;2023-05-07T09:28:48;2.77;;;1.10;;
16159;SDS011;8185;57.818;15.224;2023-05-07T09:31:15;1.97;;;1.10;;
16159;SDS011;8185;57.818;15.224;2023-05-07T09:33:42;2.73;;;1.00;;
16159;SDS011;8185;57.818;15.224;2023-05-07T09:36:10;4.00;;;1.10;;
16159;SDS011;8185;57.818;15.224;2023-05-07T09:38:37;1.10;;;1.00;;
16159;SDS011;8185;57.818;15.224;2023-05-07T09:41:06;6.43;;;0.90;;
16159;SDS011;8185;57.818;15.224;2023-05-07T09:43:35;1.90;;;1.03;;
16159;SDS011;8185;57.818;15.224;2023-05-07T09:46:06;2.87;;;1.47;;
16159;SDS011;8185;57.818;15.224;2023-05-07T09:48:38;3.43;;;1.27;;
16159;SDS011;8185;57.818;15.224;2023-05-07T09:51:10;2.67;;;1.00;;
16159;SDS011;8185;57.818;15.224;2023-05-07T09:53:43;1.93;;;1.13;;
16159;SDS011;8185;57.818;15.224;2023-05-07T09:56:14;2.13;;;1.43;;
16159;SDS011;8185;57.818;15.224;2023-05-07T09:58:43;3.67;;;1.07;;
16159;SDS011;8185;57.818;15.224;2023-05-07T10:01:11;1.97;;;1.00;;
16159;SDS011;8185;57.818;15.224;2023-05-07T10:03:40;1.37;;;1.10;;
16159;SDS011;8185;57.818;15.224;2023-05-07T10:06:08;3.00;;;1.40;;
16159;SDS011;8185;57.818;15.224;2023-05-07T10:08:36;3.60;;;1.07;;
16159;SDS011;8185;57.818;15.224;2023-05-07T10:11:04;1.50;;;1.30;;
16159;SDS011;8185;57.818;15.224;2023-05-07T10:13:33;1.97;;;1.10;;
16159;SDS011;8185;57.818;15.224;2023-05-07T10:16:02;2.47;;;1.30;;
16159;SDS011;8185;57.818;15.224;2023-05-07T10:18:30;3.00;;;1.00;;
16159;SDS011;8185;57.818;15.224;2023-05-07T10:21:00;2.90;;;1.30;;
16159;SDS011;8185;57.818;15.224;2023-05-07T10:23:31;1.97;;;1.20;;
16159;SDS011;8185;57.818;15.224;2023-05-07T10:25:59;2.43;;;1.10;;
16159;SDS011;8185;57.818;15.224;2023-05-07T10:28:30;1.63;;;0.70;;
16159;SDS011;8185;57.818;15.224;2023-05-07T10:33:53;1.30;;;1.00;;
16159;SDS011;8185;57.818;15.224;2023-05-07T10:36:22;2.87;;;1.10;;
16159;SDS011;8185;57.818;15.224;2023-05-07T10:38:50;4.80;;;1.30;;
16159;SDS011;8185;57.818;15.224;2023-05-07T10:41:17;1.70;;;1.10;;
16159;SDS011;8185;57.818;15.224;2023-05-07T10:43:47;1.52;;;1.00;;
16159;SDS011;8185;57.818;15.224;2023-05-07T10:46:15;3.80;;;1.00;;
16159;SDS011;8185;57.818;15.224;2023-05-07T10:51:38;2.60;;;1.00;;
16159;SDS011;8185;57.818;15.224;2023-05-07T10:54:23;2.90;;;0.90;;
16159;SDS011;8185;57.818;15.224;2023-05-07T10:56:50;1.88;;;0.90;;
16159;SDS011;8185;57.818;15.224;2023-05-07T10:59:31;5.60;;;0.90;;
16159;SDS011;8185;57.818;15.224;2023-05-07T11:02:07;2.60;;;1.00;;
16159;SDS011;8185;57.818;15.224;2023-05-07T11:04:36;3.30;;;1.17;;
16159;SDS011;8185;57.818;15.224;2023-05-07T11:09:56;1.40;;;1.05;;
16159;SDS011;8185;57.818;15.224;2023-05-07T11:15:38;1.50;;;1.00;;
16159;SDS011;8185;57.818;15.224;2023-05-07T11:18:10;1.55;;;1.00;;
16159;SDS011;8185;57.818;15.224;2023-05-07T11:20:53;3.65;;;1.08;;
16159;SDS011;8185;57.818;15.224;2023-05-07T11:26:27;3.30;;;1.02;;
16159;SDS011;8185;57.818;15.224;2023-05-07T11:28:56;1.75;;;0.70;;
16159;SDS011;8185;57.818;15.224;2023-05-07T11:31:27;2.20;;;0.80;;
16159;SDS011;8185;57.818;15.224;2023-05-07T11:33:55;2.33;;;1.00;;
16159;SDS011;8185;57.818;15.224;2023-05-07T11:36:23;1.50;;;0.82;;
16159;SDS011;8185;57.818;15.224;2023-05-07T11:38:51;3.15;;;1.00;;
16159;SDS011;8185;57.818;15.224;2023-05-07T11:41:18;1.50;;;1.08;;
16159;SDS011;8185;57.818;15.224;2023-05-07T11:43:53;1.85;;;1.05;;
16159;SDS011;8185;57.818;15.224;2023-05-07T11:46:22;4.25;;;0.90;;
16159;SDS011;8185;57.818;15.224;2023-05-07T11:48:51;1.77;;;1.00;;
16159;SDS011;8185;57.818;15.224;2023-05-07T11:51:18;4.93;;;1.10;;
16159;SDS011;8185;57.818;15.224;2023-05-07T11:53:46;2.60;;;1.00;;
16159;SDS011;8185;57.818;15.224;2023-05-07T11:56:14;2.55;;;0.85;;
16159;SDS011;8185;57.818;15.224;2023-05-07T11:58:44;2.17;;;1.02;;
16159;SDS011;8185;57.818;15.224;2023-05-07T12:01:12;4.53;;;3.72;;
16159;SDS011;8185;57.818;15.224;2023-05-07T12:03:40;2.80;;;2.60;;
16159;SDS011;8185;57.818;15.224;2023-05-07T12:06:11;1.30;;;1.10;;
16159;SDS011;8185;57.818;15.224;2023-05-07T12:08:40;0.95;;;0.80;;
16159;SDS011;8185;57.818;15.224;2023-05-07T12:11:08;1.85;;;1.00;;
16159;SDS011;8185;57.818;15.224;2023-05-07T12:13:36;1.80;;;1.00;;
16159;SDS011;8185;57.818;15.224;2023-05-07T12:16:05;2.95;;;1.10;;
16159;SDS011;8185;57.818;15.224;2023-05-07T12:18:36;2.13;;;1.00;;
16159;SDS011;8185;57.818;15.224;2023-05-07T12:21:04;2.42;;;1.33;;
16159;SDS011;8185;57.818;15.224;2023-05-07T12:23:34;2.25;;;0.85;;
16159;SDS011;8185;57.818;15.224;2023-05-07T12:26:03;2.10;;;1.15;;
16159;SDS011;8185;57.818;15.224;2023-05-07T12:28:30;2.97;;;0.88;;
16159;SDS011;8185;57.818;15.224;2023-05-07T12:31:03;2.42;;;1.05;;
16159;SDS011;8185;57.818;15.224;2023-05-07T12:33:31;3.00;;;0.98;;
16159;SDS011;8185;57.818;15.224;2023-05-07T12:36:02;1.30;;;1.00;;
16159;SDS011;8185;57.818;15.224;2023-05-07T12:38:34;1.27;;;0.80;;
16159;SDS011;8185;57.818;15.224;2023-05-07T12:41:05;2.63;;;1.00;;
16159;SDS011;8185;57.818;15.224;2023-05-07T12:43:34;2.92;;;1.23;;
16159;SDS011;8185;57.818;15.224;2023-05-07T12:46:01;2.75;;;2.20;;
16159;SDS011;8185;57.818;15.224;2023-05-07T12:48:30;2.00;;;1.13;;
16159;SDS011;8185;57.818;15.224;2023-05-07T12:50:59;1.80;;;1.10;;
16159;SDS011;8185;57.818;15.224;2023-05-07T12:53:27;1.10;;;0.93;;
16159;SDS011;8185;57.818;15.224;2023-05-07T12:55:58;2.13;;;1.00;;
16159;SDS011;8185;57.818;15.224;2023-05-07T12:58:26;3.08;;;0.98;;
16159;SDS011;8185;57.818;15.224;2023-05-07T13:00:55;4.95;;;3.95;;
16159;SDS011;8185;57.818;15.224;2023-05-07T13:03:25;1.30;;;0.77;;
16159;SDS011;8185;57.818;15.224;2023-05-07T13:05:54;3.28;;;1.30;;
16159;SDS011;8185;57.818;15.224;2023-05-07T13:08:25;4.13;;;1.00;;
16159;SDS011;8185;57.818;15.224;2023-05-07T13:10:54;1.50;;;1.10;;
16159;SDS011;8185;57.818;15.224;2023-05-07T13:13:23;1.88;;;0.85;;
16159;SDS011;8185;57.818;15.224;2023-05-07T13:15:51;1.65;;;0.85;;
16159;SDS011;8185;57.818;15.224;2023-05-07T13:18:18;3.58;;;1.00;;
16159;SDS011;8185;57.818;15.224;2023-05-07T13:20:45;1.73;;;0.88;;
16159;SDS011;8185;57.818;15.224;2023-05-07T13:23:12;3.83;;;0.80;;
16159;SDS011;8185;57.818;15.224;2023-05-07T13:25:39;3.05;;;1.02;;
16159;SDS011;8185;57.818;15.224;2023-05-07T13:28:07;1.73;;;1.20;;
16159;SDS011;8185;57.818;15.224;2023-05-07T13:30:35;1.48;;;0.73;;
16159;SDS011;8185;57.818;15.224;2023-05-07T13:33:03;2.00;;;1.17;;
16159;SDS011;8185;57.818;15.224;2023-05-07T13:35:30;4.07;;;0.88;;
16159;SDS011;8185;57.818;15.224;2023-05-07T13:37:57;1.85;;;0.85;;
16159;SDS011;8185;57.818;15.224;2023-05-07T13:40:25;2.63;;;1.00;;
16159;SDS011;8185;57.818;15.224;2023-05-07T13:42:52;1.10;;;0.90;;
16159;SDS011;8185;57.818;15.224;2023-05-07T13:45:20;1.80;;;0.98;;
16159;SDS011;8185;57.818;15.224;2023-05-07T13:47:52;1.77;;;0.85;;
16159;SDS011;8185;57.818;15.224;2023-05-07T13:50:19;2.63;;;1.10;;
16159;SDS011;8185;57.818;15.224;2023-05-07T13:52:46;1.88;;;1.00;;
16159;SDS011;8185;57.818;15.224;2023-05-07T13:55:16;2.42;;;0.90;;
16159;SDS011;8185;57.818;15.224;2023-05-07T13:57:44;2.08;;;0.90;;
16159;SDS011;8185;57.818;15.224;2023-05-07T14:00:11;3.08;;;1.00;;
16159;SDS011;8185;57.818;15.224;2023-05-07T14:02:41;1.27;;;0.82;;
16159;SDS011;8185;57.818;15.224;2023-05-07T14:05:10;2.25;;;0.90;;
16159;SDS011;8185;57.818;15.224;2023-05-07T14:07:38;3.92;;;1.02;;
16159;SDS011;8185;57.818;15.224;2023-05-07T14:10:06;2.70;;;0.82;;
16159;SDS011;8185;57.818;15.224;2023-05-07T14:12:34;3.80;;;1.02;;
16159;SDS011;8185;57.818;15.224;2023-05-07T14:15:02;1.98;;;0.90;;
16159;SDS011;8185;57.818;15.224;2023-05-07T14:17:29;3.45;;;0.90;;
16159;SDS011;8185;57.818;15.224;2023-05-07T14:19:56;2.72;;;0.98;;
16159;SDS011;8185;57.818;15.224;2023-05-07T14:22:25;2.45;;;0.90;;
16159;SDS011;8185;57.818;15.224;2023-05-07T14:24:52;2.28;;;0.85;;
16159;SDS011;8185;57.818;15.224;2023-05-07T14:27:20;0.90;;;0.70;;
16159;SDS011;8185;57.818;15.224;2023-05-07T14:29:47;2.92;;;0.98;;
16159;SDS011;8185;57.818;15.224;2023-05-07T14:32:16;1.83;;;0.82;;
16159;SDS011;8185;57.818;15.224;2023-05-07T14:34:44;2.38;;;1.02;;
16159;SDS011;8185;57.818;15.224;2023-05-07T14:37:11;3.15;;;1.23;;
16159;SDS011;8185;57.818;15.224;2023-05-07T14:39:40;1.67;;;0.70;;
16159;SDS011;8185;57.818;15.224;2023-05-07T14:42:08;2.15;;;0.68;;
16159;SDS011;8185;57.818;15.224;2023-05-07T14:44:36;1.55;;;0.70;;
16159;SDS011;8185;57.818;15.224;2023-05-07T14:47:05;2.15;;;0.90;;
16159;SDS011;8185;57.818;15.224;2023-05-07T14:49:33;3.30;;;0.90;;
16159;SDS011;8185;57.818;15.224;2023-05-07T14:52:00;4.43;;;2.13;;
16159;SDS011;8185;57.818;15.224;2023-05-07T14:54:27;3.20;;;1.35;;
16159;SDS011;8185;57.818;15.224;2023-05-07T14:56:56;4.07;;;2.70;;
16159;SDS011;8185;57.818;15.224;2023-05-07T14:59:24;4.05;;;1.13;;
16159;SDS011;8185;57.818;15.224;2023-05-07T15:01:51;4.03;;;0.80;;
16159;SDS011;8185;57.818;15.224;2023-05-07T15:04:18;2.63;;;0.80;;
16159;SDS011;8185;57.818;15.224;2023-05-07T15:06:45;1.50;;;0.82;;
16159;SDS011;8185;57.818;15.224;2023-05-07T15:09:13;1.63;;;0.82;;